sensor_id;sensor_type;location;lat;lon;timestamp;pressure;altitude;pressure_sealevel;temperature;humidity
22649;BME280;11491;41.942;24.220;2023-02-18T00:01:28;90586.06;;;-0.45;70.68
22649;BME280;11491;41.942;24.220;2023-02-18T00:03:56;90592.66;;;-0.37;69.16
22649;BME280;11491;41.942;24.220;2023-02-18T00:06:25;90589.47;;;-0.44;69.40
22649;BME280;11491;41.942;24.220;2023-02-18T00:08:52;90582.06;;;-0.57;69.82
22649;BME280;11491;41.942;24.220;2023-02-18T00:11:20;90578.38;;;-0.77;71.62
22649;BME280;11491;41.942;24.220;2023-02-18T00:13:52;90589.44;;;-0.64;71.03
22649;BME280;11491;41.942;24.220;2023-02-18T00:16:19;90574.19;;;-0.52;70.69
22649;BME280;11491;41.942;24.220;2023-02-18T00:18:46;90577.66;;;-0.47;70.45
22649;BME280;11491;41.942;24.220;2023-02-18T00:21:15;90576.81;;;-0.52;69.90
22649;BME280;11491;41.942;24.220;2023-02-18T00:23:42;90575.19;;;-0.84;70.81
22649;BME280;11491;41.942;24.220;2023-02-18T00:26:11;90574.13;;;-0.83;71.24
22649;BME280;11491;41.942;24.220;2023-02-18T00:28:38;90574.16;;;-0.73;71.12
22649;BME280;11491;41.942;24.220;2023-02-18T00:31:06;90571.81;;;-0.74;70.34
22649;BME280;11491;41.942;24.220;2023-02-18T00:33:33;90559.97;;;-0.82;70.69
22649;BME280;11491;41.942;24.220;2023-02-18T00:36:01;90565.75;;;-0.75;71.47
22649;BME280;11491;41.942;24.220;2023-02-18T00:38:30;90568.38;;;-0.75;71.09
22649;BME280;11491;41.942;24.220;2023-02-18T00:40:57;90562.56;;;-0.87;71.50
22649;BME280;11491;41.942;24.220;2023-02-18T00:43:23;90553.38;;;-0.90;72.01
22649;BME280;11491;41.942;24.220;2023-02-18T00:45:50;90556.84;;;-0.74;71.36
22649;BME280;11491;41.942;24.220;2023-02-18T00:48:17;90550.56;;;-0.57;69.86
22649;BME280;11491;41.942;24.220;2023-02-18T00:50:45;90551.84;;;-0.70;70.13
22649;BME280;11491;41.942;24.220;2023-02-18T00:53:11;90549.97;;;-0.85;71.73
22649;BME280;11491;41.942;24.220;2023-02-18T00:55:40;90553.63;;;-0.96;71.70
22649;BME280;11491;41.942;24.220;2023-02-18T00:58:07;90543.69;;;-0.89;70.69
22649;BME280;11491;41.942;24.220;2023-02-18T01:00:34;90528.19;;;-0.85;70.48
22649;BME280;11491;41.942;24.220;2023-02-18T01:03:01;90524.78;;;-0.86;70.02
22649;BME280;11491;41.942;24.220;2023-02-18T01:05:30;90526.88;;;-0.83;69.96
22649;BME280;11491;41.942;24.220;2023-02-18T01:07:57;90519.50;;;-0.96;70.62
22649;BME280;11491;41.942;24.220;2023-02-18T01:10:24;90516.09;;;-0.97;70.04
22649;BME280;11491;41.942;24.220;2023-02-18T01:12:52;90516.34;;;-0.93;70.62
22649;BME280;11491;41.942;24.220;2023-02-18T01:15:19;90509.78;;;-0.91;70.58
22649;BME280;11491;41.942;24.220;2023-02-18T01:17:45;90499.28;;;-1.01;70.89
22649;BME280;11491;41.942;24.220;2023-02-18T01:20:13;90493.25;;;-1.01;70.68
22649;BME280;11491;41.942;24.220;2023-02-18T01:22:40;90491.16;;;-0.94;71.04
22649;BME280;11491;41.942;24.220;2023-02-18T01:25:08;90492.72;;;-0.88;70.67
22649;BME280;11491;41.942;24.220;2023-02-18T01:27:35;90476.44;;;-0.85;70.85
22649;BME280;11491;41.942;24.220;2023-02-18T01:30:07;90474.88;;;-0.86;69.89
22649;BME280;11491;41.942;24.220;2023-02-18T01:32:34;90470.16;;;-0.89;69.55
22649;BME280;11491;41.942;24.220;2023-02-18T01:35:01;90470.66;;;-1.02;70.63
22649;BME280;11491;41.942;24.220;2023-02-18T01:37:28;90469.09;;;-0.83;69.02
22649;BME280;11491;41.942;24.220;2023-02-18T01:39:55;90464.13;;;-0.79;69.07
22649;BME280;11491;41.942;24.220;2023-02-18T01:42:24;90462.28;;;-0.84;68.08
22649;BME280;11491;41.942;24.220;2023-02-18T01:44:51;90460.16;;;-1.02;69.97
22649;BME280;11491;41.942;24.220;2023-02-18T01:47:20;90468.50;;;-1.21;71.00
22649;BME280;11491;41.942;24.220;2023-02-18T01:49:49;90461.75;;;-1.01;69.50
22649;BME280;11491;41.942;24.220;2023-02-18T01:52:20;90458.59;;;-1.03;69.61
22649;BME280;11491;41.942;24.220;2023-02-18T01:54:50;90453.56;;;-1.10;69.36
22649;BME280;11491;41.942;24.220;2023-02-18T01:57:20;90452.25;;;-1.18;69.93
22649;BME280;11491;41.942;24.220;2023-02-18T01:59:51;90454.88;;;-1.13;69.73
22649;BME280;11491;41.942;24.220;2023-02-18T02:02:23;90450.16;;;-1.05;69.27
22649;BME280;11491;41.942;24.220;2023-02-18T02:04:51;90449.38;;;-1.11;69.82
22649;BME280;11491;41.942;24.220;2023-02-18T02:07:19;90457.47;;;-1.33;71.04
22649;BME280;11491;41.942;24.220;2023-02-18T02:09:49;90463.75;;;-1.34;71.13
22649;BME280;11491;41.942;24.220;2023-02-18T02:12:27;90471.63;;;-1.34;70.84
22649;BME280;11491;41.942;24.220;2023-02-18T02:15:10;90470.09;;;-1.15;70.13
22649;BME280;11491;41.942;24.220;2023-02-18T02:17:51;90463.81;;;-1.14;70.24
22649;BME280;11491;41.942;24.220;2023-02-18T02:20:54;90475.34;;;-1.15;69.36
22649;BME280;11491;41.942;24.220;2023-02-18T02:23:46;90486.03;;;-1.37;71.02
22649;BME280;11491;41.942;24.220;2023-02-18T02:36:03;90478.28;;;-1.74;72.35
22649;BME280;11491;41.942;24.220;2023-02-18T02:38:36;90474.66;;;-1.68;72.63
22649;BME280;11491;41.942;24.220;2023-02-18T02:41:16;90488.25;;;-1.76;72.66
22649;BME280;11491;41.942;24.220;2023-02-18T02:43:51;90489.38;;;-1.57;71.85
22649;BME280;11491;41.942;24.220;2023-02-18T02:46:27;90497.31;;;-1.46;71.05
22649;BME280;11491;41.942;24.220;2023-02-18T02:49:02;90492.06;;;-1.46;72.07
22649;BME280;11491;41.942;24.220;2023-02-18T02:51:40;90497.81;;;-1.39;70.34
22649;BME280;11491;41.942;24.220;2023-02-18T02:54:12;90500.16;;;-1.48;70.84
22649;BME280;11491;41.942;24.220;2023-02-18T02:56:39;90494.13;;;-1.48;70.86
22649;BME280;11491;41.942;24.220;2023-02-18T02:59:09;90493.13;;;-1.32;70.13
22649;BME280;11491;41.942;24.220;2023-02-18T03:01:46;90500.69;;;-1.51;71.06
22649;BME280;11491;41.942;24.220;2023-02-18T03:04:29;90498.88;;;-1.45;70.76
22649;BME280;11491;41.942;24.220;2023-02-18T03:07:10;90504.09;;;-1.50;71.48
22649;BME280;11491;41.942;24.220;2023-02-18T03:09:56;90495.72;;;-1.47;70.96
22649;BME280;11491;41.942;24.220;2023-02-18T03:12:34;90500.94;;;-1.53;72.05
22649;BME280;11491;41.942;24.220;2023-02-18T03:15:06;90501.50;;;-1.40;70.66
22649;BME280;11491;41.942;24.220;2023-02-18T03:17:36;90507.28;;;-1.38;70.58
22649;BME280;11491;41.942;24.220;2023-02-18T03:20:09;90496.25;;;-1.45;70.66
22649;BME280;11491;41.942;24.220;2023-02-18T03:22:43;90498.22;;;-1.73;72.16
22649;BME280;11491;41.942;24.220;2023-02-18T03:25:12;90498.22;;;-1.73;72.24
22649;BME280;11491;41.942;24.220;2023-02-18T03:27:43;90487.13;;;-1.90;73.07
22649;BME280;11491;41.942;24.220;2023-02-18T03:30:14;90488.66;;;-1.95;73.53
22649;BME280;11491;41.942;24.220;2023-02-18T03:32:43;90491.84;;;-1.87;73.56
22649;BME280;11491;41.942;24.220;2023-02-18T03:35:16;90486.94;;;-1.79;72.34
22649;BME280;11491;41.942;24.220;2023-02-18T03:37:48;90489.25;;;-1.82;73.03
22649;BME280;11491;41.942;24.220;2023-02-18T03:40:17;90479.28;;;-1.85;72.92
22649;BME280;11491;41.942;24.220;2023-02-18T03:42:44;90483.41;;;-2.00;73.62
22649;BME280;11491;41.942;24.220;2023-02-18T03:45:11;90484.00;;;-1.87;72.86
22649;BME280;11491;41.942;24.220;2023-02-18T03:47:38;90474.09;;;-1.75;72.98
22649;BME280;11491;41.942;24.220;2023-02-18T03:50:06;90470.75;;;-1.60;72.32
22649;BME280;11491;41.942;24.220;2023-02-18T03:52:33;90472.59;;;-1.56;71.49
22649;BME280;11491;41.942;24.220;2023-02-18T03:55:05;90469.91;;;-1.76;72.73
22649;BME280;11491;41.942;24.220;2023-02-18T03:57:33;90475.66;;;-1.74;72.69
22649;BME280;11491;41.942;24.220;2023-02-18T04:00:00;90476.00;;;-1.60;71.85
22649;BME280;11491;41.942;24.220;2023-02-18T04:02:29;90468.91;;;-1.55;71.80
22649;BME280;11491;41.942;24.220;2023-02-18T04:04:56;90460.50;;;-1.57;72.22
22649;BME280;11491;41.942;24.220;2023-02-18T04:07:23;90463.19;;;-1.52;71.58
22649;BME280;11491;41.942;24.220;2023-02-18T04:09:50;90460.06;;;-1.43;70.96
22649;BME280;11491;41.942;24.220;2023-02-18T04:12:18;90466.59;;;-1.46;71.11
22649;BME280;11491;41.942;24.220;2023-02-18T04:14:45;90462.13;;;-1.56;71.67
22649;BME280;11491;41.942;24.220;2023-02-18T04:17:11;90465.31;;;-1.43;70.96
22649;BME280;11491;41.942;24.220;2023-02-18T04:19:38;90468.44;;;-1.52;70.99
22649;BME280;11491;41.942;24.220;2023-02-18T04:22:05;90478.38;;;-1.59;72.55
22649;BME280;11491;41.942;24.220;2023-02-18T04:24:31;90486.25;;;-1.54;71.81
22649;BME280;11491;41.942;24.220;2023-02-18T04:26:58;90493.06;;;-1.53;71.67
22649;BME280;11491;41.942;24.220;2023-02-18T04:29:26;90492.00;;;-1.57;71.94
22649;BME280;11491;41.942;24.220;2023-02-18T04:31:53;90515.41;;;-1.92;73.28
22649;BME280;11491;41.942;24.220;2023-02-18T04:34:20;90500.22;;;-1.90;74.11
22649;BME280;11491;41.942;24.220;2023-02-18T04:36:47;90523.91;;;-1.75;74.06
22649;BME280;11491;41.942;24.220;2023-02-18T04:39:14;90522.63;;;-1.67;72.91
22649;BME280;11491;41.942;24.220;2023-02-18T04:41:40;90522.94;;;-1.64;72.72
22649;BME280;11491;41.942;24.220;2023-02-18T04:44:07;90523.53;;;-1.46;72.70
22649;BME280;11491;41.942;24.220;2023-02-18T04:46:35;90534.03;;;-1.46;72.89
22649;BME280;11491;41.942;24.220;2023-02-18T04:49:04;90526.13;;;-1.52;73.22
22649;BME280;11491;41.942;24.220;2023-02-18T04:51:30;90533.22;;;-1.47;72.96
22649;BME280;11491;41.942;24.220;2023-02-18T04:53:57;90524.56;;;-1.47;73.12
22649;BME280;11491;41.942;24.220;2023-02-18T04:56:24;90534.47;;;-1.60;73.70
22649;BME280;11491;41.942;24.220;2023-02-18T04:58:51;90524.69;;;-1.75;73.92
22649;BME280;11491;41.942;24.220;2023-02-18T05:01:17;90541.25;;;-1.69;74.60
22649;BME280;11491;41.942;24.220;2023-02-18T05:03:46;90533.69;;;-1.60;74.76
22649;BME280;11491;41.942;24.220;2023-02-18T05:06:12;90534.75;;;-1.56;74.27
22649;BME280;11491;41.942;24.220;2023-02-18T05:08:39;90537.63;;;-1.58;73.82
22649;BME280;11491;41.942;24.220;2023-02-18T05:11:06;90532.66;;;-1.54;73.67
22649;BME280;11491;41.942;24.220;2023-02-18T05:13:33;90535.59;;;-1.45;73.55
22649;BME280;11491;41.942;24.220;2023-02-18T05:16:00;90527.53;;;-1.34;73.10
22649;BME280;11491;41.942;24.220;2023-02-18T05:18:27;90533.03;;;-1.30;72.68
22649;BME280;11491;41.942;24.220;2023-02-18T05:20:55;90534.63;;;-1.29;72.41
22649;BME280;11491;41.942;24.220;2023-02-18T05:23:22;90536.84;;;-1.58;73.36
22649;BME280;11491;41.942;24.220;2023-02-18T05:25:50;90536.34;;;-1.55;74.04
22649;BME280;11491;41.942;24.220;2023-02-18T05:28:16;90531.38;;;-1.52;74.42
22649;BME280;11491;41.942;24.220;2023-02-18T05:30:43;90522.69;;;-1.52;74.47
22649;BME280;11491;41.942;24.220;2023-02-18T05:33:10;90522.50;;;-1.40;73.84
22649;BME280;11491;41.942;24.220;2023-02-18T05:35:37;90535.38;;;-1.39;73.85
22649;BME280;11491;41.942;24.220;2023-02-18T05:38:05;90526.75;;;-1.34;73.96
22649;BME280;11491;41.942;24.220;2023-02-18T05:40:32;90525.97;;;-1.24;73.70
22649;BME280;11491;41.942;24.220;2023-02-18T05:42:58;90525.69;;;-1.33;74.00
22649;BME280;11491;41.942;24.220;2023-02-18T05:45:25;90521.53;;;-1.19;73.40
22649;BME280;11491;41.942;24.220;2023-02-18T05:47:51;90528.34;;;-1.18;73.56
22649;BME280;11491;41.942;24.220;2023-02-18T05:50:18;90520.47;;;-1.18;72.79
22649;BME280;11491;41.942;24.220;2023-02-18T05:52:44;90526.25;;;-1.21;74.04
22649;BME280;11491;41.942;24.220;2023-02-18T05:55:13;90518.97;;;-0.98;73.05
22649;BME280;11491;41.942;24.220;2023-02-18T05:57:40;90511.34;;;-0.90;72.56
22649;BME280;11491;41.942;24.220;2023-02-18T06:00:08;90509.56;;;-0.84;72.22
22649;BME280;11491;41.942;24.220;2023-02-18T06:02:35;90507.97;;;-0.85;73.20
22649;BME280;11491;41.942;24.220;2023-02-18T06:05:01;90511.66;;;-0.81;73.51
22649;BME280;11491;41.942;24.220;2023-02-18T06:07:28;90513.75;;;-0.78;73.98
22649;BME280;11491;41.942;24.220;2023-02-18T06:09:55;90520.63;;;-0.56;73.04
22649;BME280;11491;41.942;24.220;2023-02-18T06:12:23;90513.53;;;-0.46;72.78
22649;BME280;11491;41.942;24.220;2023-02-18T06:14:50;90521.69;;;-0.32;71.70
22649;BME280;11491;41.942;24.220;2023-02-18T06:17:17;90518.53;;;-0.34;71.88
22649;BME280;11491;41.942;24.220;2023-02-18T06:19:44;90507.50;;;-0.36;71.77
22649;BME280;11491;41.942;24.220;2023-02-18T06:22:11;90512.75;;;-0.20;72.04
22649;BME280;11491;41.942;24.220;2023-02-18T06:24:38;90507.47;;;-0.10;71.98
22649;BME280;11491;41.942;24.220;2023-02-18T06:27:04;90505.91;;;-0.11;71.67
22649;BME280;11491;41.942;24.220;2023-02-18T06:29:33;90513.25;;;-0.03;72.17
22649;BME280;11491;41.942;24.220;2023-02-18T06:32:01;90511.94;;;-0.01;72.66
22649;BME280;11491;41.942;24.220;2023-02-18T06:34:28;90514.84;;;0.08;72.73
22649;BME280;11491;41.942;24.220;2023-02-18T06:36:54;90514.56;;;0.25;72.78
22649;BME280;11491;41.942;24.220;2023-02-18T06:39:21;90508.97;;;0.52;71.77
22649;BME280;11491;41.942;24.220;2023-02-18T06:41:48;90512.06;;;0.64;72.16
22649;BME280;11491;41.942;24.220;2023-02-18T06:44:15;90503.03;;;0.86;72.67
22649;BME280;11491;41.942;24.220;2023-02-18T06:46:43;90512.13;;;1.09;71.90
22649;BME280;11491;41.942;24.220;2023-02-18T06:49:10;90499.72;;;1.20;71.13
22649;BME280;11491;41.942;24.220;2023-02-18T06:51:37;90504.91;;;1.35;70.66
22649;BME280;11491;41.942;24.220;2023-02-18T06:54:04;90510.59;;;1.53;70.31
22649;BME280;11491;41.942;24.220;2023-02-18T06:56:31;90520.50;;;1.66;70.06
22649;BME280;11491;41.942;24.220;2023-02-18T06:58:58;90518.31;;;1.78;69.45
22649;BME280;11491;41.942;24.220;2023-02-18T07:01:25;90510.75;;;2.01;69.45
22649;BME280;11491;41.942;24.220;2023-02-18T07:03:53;90513.81;;;2.13;68.26
22649;BME280;11491;41.942;24.220;2023-02-18T07:06:20;90515.25;;;2.29;68.87
22649;BME280;11491;41.942;24.220;2023-02-18T07:08:46;90511.63;;;2.49;68.63
22649;BME280;11491;41.942;24.220;2023-02-18T07:11:13;90501.63;;;2.70;68.17
22649;BME280;11491;41.942;24.220;2023-02-18T07:13:40;90504.34;;;2.89;67.25
22649;BME280;11491;41.942;24.220;2023-02-18T07:16:07;90503.09;;;3.06;66.68
22649;BME280;11491;41.942;24.220;2023-02-18T07:18:33;90501.47;;;3.29;66.55
22649;BME280;11491;41.942;24.220;2023-02-18T07:21:02;90498.72;;;3.58;65.96
22649;BME280;11491;41.942;24.220;2023-02-18T07:23:29;90494.91;;;3.83;64.50
22649;BME280;11491;41.942;24.220;2023-02-18T07:26:03;90496.22;;;3.99;64.69
22649;BME280;11491;41.942;24.220;2023-02-18T07:28:29;90493.47;;;4.37;63.42
22649;BME280;11491;41.942;24.220;2023-02-18T07:30:56;90489.81;;;4.66;62.65
22649;BME280;11491;41.942;24.220;2023-02-18T07:33:23;90475.13;;;4.87;61.60
22649;BME280;11491;41.942;24.220;2023-02-18T07:35:52;90487.47;;;5.06;60.55
22649;BME280;11491;41.942;24.220;2023-02-18T07:38:21;90483.72;;;5.07;60.11
22649;BME280;11491;41.942;24.220;2023-02-18T07:40:48;90487.84;;;5.13;60.26
22649;BME280;11491;41.942;24.220;2023-02-18T07:43:15;90484.50;;;5.21;60.09
22649;BME280;11491;41.942;24.220;2023-02-18T07:45:42;90475.88;;;5.29;60.52
22649;BME280;11491;41.942;24.220;2023-02-18T07:48:09;90477.81;;;5.37;60.09
22649;BME280;11491;41.942;24.220;2023-02-18T07:50:38;90474.84;;;5.53;60.23
22649;BME280;11491;41.942;24.220;2023-02-18T07:53:05;90474.56;;;5.77;60.12
22649;BME280;11491;41.942;24.220;2023-02-18T07:55:34;90468.47;;;6.13;58.92
22649;BME280;11491;41.942;24.220;2023-02-18T07:58:17;90484.66;;;6.56;57.97
22649;BME280;11491;41.942;24.220;2023-02-18T08:00:44;90474.41;;;7.03;57.08
22649;BME280;11491;41.942;24.220;2023-02-18T08:03:14;90472.78;;;7.42;53.88
22649;BME280;11491;41.942;24.220;2023-02-18T08:05:41;90464.19;;;7.54;51.78
22649;BME280;11491;41.942;24.220;2023-02-18T08:08:11;90456.53;;;7.70;52.57
22649;BME280;11491;41.942;24.220;2023-02-18T08:10:40;90450.31;;;8.01;52.29
22649;BME280;11491;41.942;24.220;2023-02-18T08:13:07;90443.03;;;8.27;52.39
22649;BME280;11491;41.942;24.220;2023-02-18T08:15:34;90428.66;;;8.28;50.47
22649;BME280;11491;41.942;24.220;2023-02-18T08:18:01;90433.31;;;8.49;50.43
22649;BME280;11491;41.942;24.220;2023-02-18T08:20:28;90432.25;;;8.50;50.40
22649;BME280;11491;41.942;24.220;2023-02-18T08:22:55;90431.31;;;8.46;50.24
22649;BME280;11491;41.942;24.220;2023-02-18T08:25:21;90434.88;;;8.67;51.20
22649;BME280;11491;41.942;24.220;2023-02-18T08:27:50;90433.50;;;8.91;51.44
22649;BME280;11491;41.942;24.220;2023-02-18T08:30:16;90426.88;;;9.56;50.25
22649;BME280;11491;41.942;24.220;2023-02-18T08:32:43;90421.16;;;10.08;49.03
22649;BME280;11491;41.942;24.220;2023-02-18T08:35:11;90424.09;;;10.70;47.25
22649;BME280;11491;41.942;24.220;2023-02-18T08:37:37;90417.13;;;11.39;46.48
22649;BME280;11491;41.942;24.220;2023-02-18T08:40:06;90417.19;;;11.92;46.01
22649;BME280;11491;41.942;24.220;2023-02-18T08:42:33;90411.28;;;11.98;44.48
22649;BME280;11491;41.942;24.220;2023-02-18T08:45:01;90407.09;;;12.13;43.93
22649;BME280;11491;41.942;24.220;2023-02-18T08:47:28;90408.56;;;12.11;44.12
22649;BME280;11491;41.942;24.220;2023-02-18T08:49:55;90407.16;;;11.89;44.24
22649;BME280;11491;41.942;24.220;2023-02-18T08:52:22;90402.69;;;11.93;44.13
22649;BME280;11491;41.942;24.220;2023-02-18T08:54:49;90403.91;;;12.36;44.09
22649;BME280;11491;41.942;24.220;2023-02-18T08:57:16;90396.03;;;12.87;42.25
22649;BME280;11491;41.942;24.220;2023-02-18T08:59:43;90394.66;;;13.56;41.19
22649;BME280;11491;41.942;24.220;2023-02-18T09:02:12;90397.94;;;13.66;36.93
22649;BME280;11491;41.942;24.220;2023-02-18T09:04:39;90361.56;;;13.52;37.79
22649;BME280;11491;41.942;24.220;2023-02-18T09:07:06;90397.19;;;13.49;35.97
22649;BME280;11491;41.942;24.220;2023-02-18T09:09:33;90397.81;;;13.27;35.46
22649;BME280;11491;41.942;24.220;2023-02-18T09:12:00;90395.59;;;13.17;35.43
22649;BME280;11491;41.942;24.220;2023-02-18T09:14:26;90394.66;;;13.56;35.16
22649;BME280;11491;41.942;24.220;2023-02-18T09:16:55;90388.41;;;14.04;32.96
22649;BME280;11491;41.942;24.220;2023-02-18T09:19:23;90393.50;;;14.48;32.79
22649;BME280;11491;41.942;24.220;2023-02-18T09:21:50;90385.28;;;15.02;31.64
22649;BME280;11491;41.942;24.220;2023-02-18T09:24:17;90393.69;;;15.43;31.51
22649;BME280;11491;41.942;24.220;2023-02-18T09:26:44;90399.22;;;15.54;30.80
22649;BME280;11491;41.942;24.220;2023-02-18T09:29:11;90405.00;;;15.29;30.04
22649;BME280;11491;41.942;24.220;2023-02-18T09:31:38;90396.13;;;15.06;29.67
22649;BME280;11491;41.942;24.220;2023-02-18T09:34:05;90396.00;;;14.99;29.13
22649;BME280;11491;41.942;24.220;2023-02-18T09:36:33;90396.59;;;15.35;30.18
22649;BME280;11491;41.942;24.220;2023-02-18T09:39:00;90395.06;;;15.34;29.38
22649;BME280;11491;41.942;24.220;2023-02-18T09:41:31;90401.06;;;15.23;28.49
22649;BME280;11491;41.942;24.220;2023-02-18T09:44:05;90400.09;;;16.11;27.05
22649;BME280;11491;41.942;24.220;2023-02-18T09:46:38;90395.94;;;16.78;27.16
22649;BME280;11491;41.942;24.220;2023-02-18T09:49:11;90403.00;;;17.27;29.61
22649;BME280;11491;41.942;24.220;2023-02-18T09:51:41;90376.59;;;17.10;27.54
22649;BME280;11491;41.942;24.220;2023-02-18T09:54:09;90402.31;;;17.37;28.02
22649;BME280;11491;41.942;24.220;2023-02-18T09:56:38;90385.09;;;16.44;26.56
22649;BME280;11491;41.942;24.220;2023-02-18T09:59:10;90397.56;;;16.56;27.58
22649;BME280;11491;41.942;24.220;2023-02-18T10:01:40;90402.47;;;16.77;26.84
22649;BME280;11491;41.942;24.220;2023-02-18T10:04:13;90403.06;;;16.63;27.25
22649;BME280;11491;41.942;24.220;2023-02-18T10:06:43;90403.75;;;16.56;26.41
22649;BME280;11491;41.942;24.220;2023-02-18T10:09:18;90407.06;;;16.12;27.10
22649;BME280;11491;41.942;24.220;2023-02-18T10:11:48;90405.47;;;16.11;27.03
22649;BME280;11491;41.942;24.220;2023-02-18T10:14:17;90403.41;;;15.75;27.67
22649;BME280;11491;41.942;24.220;2023-02-18T10:16:45;90404.44;;;15.20;28.09
22649;BME280;11491;41.942;24.220;2023-02-18T10:19:20;90400.38;;;14.84;29.04
22649;BME280;11491;41.942;24.220;2023-02-18T10:21:50;90401.34;;;14.17;30.68
22649;BME280;11491;41.942;24.220;2023-02-18T10:24:25;90389.22;;;12.89;32.18
22649;BME280;11491;41.942;24.220;2023-02-18T10:26:53;90379.31;;;12.34;33.07
22649;BME280;11491;41.942;24.220;2023-02-18T10:29:20;90392.16;;;12.56;32.46
22649;BME280;11491;41.942;24.220;2023-02-18T10:31:51;90393.25;;;12.99;31.28
22649;BME280;11491;41.942;24.220;2023-02-18T10:34:23;90380.72;;;13.51;30.79
22649;BME280;11491;41.942;24.220;2023-02-18T10:37:01;90378.81;;;14.61;29.91
22649;BME280;11491;41.942;24.220;2023-02-18T10:39:44;90364.16;;;16.34;29.72
22649;BME280;11491;41.942;24.220;2023-02-18T10:42:23;90374.97;;;17.94;28.89
22649;BME280;11491;41.942;24.220;2023-02-18T10:45:03;90368.56;;;19.22;27.79
22649;BME280;11491;41.942;24.220;2023-02-18T10:47:38;90359.25;;;20.31;26.14
22649;BME280;11491;41.942;24.220;2023-02-18T10:50:08;90358.91;;;21.20;25.82
22649;BME280;11491;41.942;24.220;2023-02-18T10:52:40;90348.09;;;21.72;23.85
22649;BME280;11491;41.942;24.220;2023-02-18T10:55:09;90355.84;;;22.23;22.68
22649;BME280;11491;41.942;24.220;2023-02-18T10:57:46;90353.53;;;22.18;21.29
22649;BME280;11491;41.942;24.220;2023-02-18T11:00:19;90360.75;;;22.73;23.44
22649;BME280;11491;41.942;24.220;2023-02-18T11:03:02;90355.88;;;23.53;22.56
22649;BME280;11491;41.942;24.220;2023-02-18T11:05:29;90354.63;;;24.32;22.64
22649;BME280;11491;41.942;24.220;2023-02-18T11:08:07;90358.22;;;24.52;19.94
22649;BME280;11491;41.942;24.220;2023-02-18T11:10:38;90351.97;;;24.04;21.03
22649;BME280;11491;41.942;24.220;2023-02-18T11:13:07;90351.03;;;23.37;21.27
22649;BME280;11491;41.942;24.220;2023-02-18T11:15:34;90337.63;;;22.54;22.09
22649;BME280;11491;41.942;24.220;2023-02-18T11:18:12;90342.81;;;21.51;22.97
22649;BME280;11491;41.942;24.220;2023-02-18T11:20:39;90337.22;;;21.06;23.33
22649;BME280;11491;41.942;24.220;2023-02-18T11:23:18;90334.53;;;19.78;23.80
22649;BME280;11491;41.942;24.220;2023-02-18T11:25:57;90327.13;;;19.29;25.47
22649;BME280;11491;41.942;24.220;2023-02-18T11:28:35;90324.41;;;19.14;26.62
22649;BME280;11491;41.942;24.220;2023-02-18T11:31:06;90325.88;;;18.80;26.50
22649;BME280;11491;41.942;24.220;2023-02-18T11:33:36;90310.31;;;18.55;25.91
22649;BME280;11491;41.942;24.220;2023-02-18T11:36:15;90307.72;;;17.93;26.69
22649;BME280;11491;41.942;24.220;2023-02-18T11:38:46;90307.44;;;17.50;27.03
22649;BME280;11491;41.942;24.220;2023-02-18T11:41:16;90318.59;;;17.44;27.71
22649;BME280;11491;41.942;24.220;2023-02-18T11:43:46;90310.88;;;16.98;27.02
22649;BME280;11491;41.942;24.220;2023-02-18T11:46:16;90310.53;;;16.66;27.45
22649;BME280;11491;41.942;24.220;2023-02-18T11:48:44;90310.44;;;16.22;28.03
22649;BME280;11491;41.942;24.220;2023-02-18T11:51:16;90304.81;;;16.34;29.94
22649;BME280;11491;41.942;24.220;2023-02-18T11:53:59;90294.66;;;16.57;29.51
22649;BME280;11491;41.942;24.220;2023-02-18T11:56:28;90292.06;;;16.72;29.58
22649;BME280;11491;41.942;24.220;2023-02-18T11:58:56;90290.66;;;16.82;30.44
22649;BME280;11491;41.942;24.220;2023-02-18T12:01:42;90290.72;;;16.85;31.10
22649;BME280;11491;41.942;24.220;2023-02-18T12:04:13;90285.88;;;17.09;31.75
22649;BME280;11491;41.942;24.220;2023-02-18T12:06:48;90283.34;;;17.30;30.86
22649;BME280;11491;41.942;24.220;2023-02-18T12:09:25;90271.44;;;17.38;31.44
22649;BME280;11491;41.942;24.220;2023-02-18T12:11:55;90272.09;;;17.76;31.76
22649;BME280;11491;41.942;24.220;2023-02-18T12:14:23;90278.41;;;18.02;29.01
22649;BME280;11491;41.942;24.220;2023-02-18T12:17:17;90278.91;;;18.33;29.34
22649;BME280;11491;41.942;24.220;2023-02-18T12:19:59;90280.22;;;18.71;31.24
22649;BME280;11491;41.942;24.220;2023-02-18T12:22:39;90288.00;;;18.87;29.44
22649;BME280;11491;41.942;24.220;2023-02-18T12:25:21;90274.84;;;18.82;28.72
22649;BME280;11491;41.942;24.220;2023-02-18T12:27:56;90267.41;;;18.57;29.20
22649;BME280;11491;41.942;24.220;2023-02-18T12:33:29;90266.91;;;18.19;29.40
22649;BME280;11491;41.942;24.220;2023-02-18T12:36:09;90260.63;;;17.94;29.93
22649;BME280;11491;41.942;24.220;2023-02-18T12:39:02;90251.19;;;17.73;30.31
22649;BME280;11491;41.942;24.220;2023-02-18T12:41:37;90260.72;;;17.53;30.31
22649;BME280;11491;41.942;24.220;2023-02-18T12:44:20;90234.56;;;17.09;30.88
22649;BME280;11491;41.942;24.220;2023-02-18T12:47:12;90260.50;;;17.17;31.54
22649;BME280;11491;41.942;24.220;2023-02-18T12:50:00;90263.72;;;16.85;31.55
22649;BME280;11491;41.942;24.220;2023-02-18T12:52:39;90257.31;;;16.67;31.98
22649;BME280;11491;41.942;24.220;2023-02-18T12:55:27;90253.38;;;16.57;32.25
22649;BME280;11491;41.942;24.220;2023-02-18T12:58:04;90240.31;;;17.04;33.07
22649;BME280;11491;41.942;24.220;2023-02-18T13:00:47;90238.88;;;17.79;31.43
22649;BME280;11491;41.942;24.220;2023-02-18T13:03:50;90242.34;;;18.82;29.83
22649;BME280;11491;41.942;24.220;2023-02-18T13:06:47;90222.59;;;19.39;29.75
22649;BME280;11491;41.942;24.220;2023-02-18T13:09:25;90243.84;;;19.76;28.94
22649;BME280;11491;41.942;24.220;2023-02-18T13:12:03;90230.63;;;19.96;29.20
22649;BME280;11491;41.942;24.220;2023-02-18T13:14:38;90225.09;;;20.21;28.41
22649;BME280;11491;41.942;24.220;2023-02-18T13:17:09;90217.22;;;20.44;28.59
22649;BME280;11491;41.942;24.220;2023-02-18T13:19:44;90221.56;;;21.05;30.15
22649;BME280;11491;41.942;24.220;2023-02-18T13:22:14;90197.06;;;21.57;27.57